Alcova, Wyoming
Current Conditions -  °F | °C
As of 4:53 AM on Monday 20 Oct 2014 (Local Time) from KCPR Reporting Station
Clear Clear  
Wind Chill: 33°   Ceiling: Unl
Heat Index: 38°   Visibility: 10mi
Dew Point: 30°   Wind: 6mph
Humidity: 73%   Direction: 220°SW
Pressure: 30.1"   Gusts: NA
Location:  42.55°N, 106.72°W
Report Text: KCPR 201053Z 22005KT 10SM CLR 03/M01 A3010 RMK AO2 SLP157 T00331011
Loading
Personal Weather Stations






























Interactive Weather Map
Tropical Storm Tracking
New forecast layout! Learn more

10-Day Weather Forecast

Advertisements
Track Severe Weather on mobile